createdAt,value
2023-02-19T00:01:01.026Z,63.75
2023-02-19T00:03:27.487Z,62.91
2023-02-19T00:05:53.934Z,63.91
2023-02-19T00:08:20.330Z,64.23
2023-02-19T00:10:46.736Z,63.91
2023-02-19T00:13:13.144Z,63.77
2023-02-19T00:15:39.619Z,63.56
2023-02-19T00:18:06.032Z,63.03
2023-02-19T00:20:32.422Z,62.91
2023-02-19T00:22:58.802Z,62.64
2023-02-19T00:25:25.215Z,63.39
2023-02-19T00:27:51.595Z,62.90
2023-02-19T00:30:18.052Z,63.42
2023-02-19T00:32:44.482Z,63.95
2023-02-19T00:35:11.078Z,63.55
2023-02-19T00:37:37.496Z,64.09
2023-02-19T00:40:03.902Z,64.42
2023-02-19T00:42:30.295Z,64.17
2023-02-19T00:44:56.690Z,63.14
2023-02-19T00:47:23.116Z,62.70
2023-02-19T00:49:49.531Z,62.85
2023-02-19T00:52:16.028Z,62.47
2023-02-19T00:54:42.428Z,62.59
2023-02-19T00:57:08.809Z,62.60
2023-02-19T00:59:35.210Z,62.64
2023-02-19T01:02:01.597Z,62.49
2023-02-19T01:04:28.038Z,61.75
2023-02-19T01:06:54.786Z,61.75
2023-02-19T01:09:21.184Z,62.23
2023-02-19T01:11:47.574Z,62.13
2023-02-19T01:14:14.016Z,61.90
2023-02-19T01:16:40.407Z,61.98
2023-02-19T01:19:06.834Z,61.63
2023-02-19T01:21:33.244Z,61.15
2023-02-19T01:23:59.636Z,60.51
2023-02-19T01:26:26.108Z,59.56
2023-02-19T01:28:52.494Z,58.36
2023-02-19T01:31:18.957Z,58.87
2023-02-19T01:33:45.441Z,59.31
2023-02-19T01:36:11.861Z,59.80
2023-02-19T01:38:38.247Z,59.49
2023-02-19T01:41:04.649Z,58.72
2023-02-19T01:43:31.331Z,58.32
2023-02-19T01:45:57.723Z,58.57
2023-02-19T01:48:24.138Z,58.90
2023-02-19T01:50:50.562Z,58.62
2023-02-19T01:53:16.956Z,58.27
2023-02-19T01:55:43.352Z,57.69
2023-02-19T01:58:09.869Z,57.84
2023-02-19T02:00:36.304Z,58.26
2023-02-19T02:03:02.755Z,58.12
2023-02-19T02:05:29.280Z,58.06
2023-02-19T02:07:55.694Z,57.69
2023-02-19T02:10:22.088Z,57.93
2023-02-19T02:12:48.484Z,57.84
2023-02-19T02:15:14.896Z,57.49
2023-02-19T02:17:41.311Z,57.58
2023-02-19T02:20:07.769Z,57.37
2023-02-19T02:22:34.184Z,57.64
2023-02-19T02:25:00.579Z,57.75
2023-02-19T02:27:26.985Z,57.86
2023-02-19T02:29:53.499Z,57.93
2023-02-19T02:32:20.047Z,58.51
2023-02-19T02:34:46.543Z,58.98
2023-02-19T02:37:12.964Z,59.49
2023-02-19T02:39:39.371Z,59.15
2023-02-19T02:42:05.780Z,59.39
2023-02-19T02:44:32.179Z,59.73
2023-02-19T02:46:58.639Z,59.02
2023-02-19T02:49:25.165Z,59.54
2023-02-19T02:51:51.547Z,59.76
2023-02-19T02:54:17.926Z,59.64
2023-02-19T02:56:44.331Z,59.50
2023-02-19T02:59:10.730Z,58.36
2023-02-19T03:01:37.160Z,58.58
2023-02-19T03:04:03.591Z,59.57
2023-02-19T03:06:30.010Z,59.52
2023-02-19T03:08:56.442Z,59.69
2023-02-19T03:11:22.890Z,59.73
2023-02-19T03:13:49.293Z,59.82
2023-02-19T03:16:15.755Z,59.62
2023-02-19T03:18:42.190Z,59.50
2023-02-19T03:21:08.997Z,59.14
2023-02-19T03:23:35.543Z,58.71
2023-02-19T03:26:01.954Z,59.20
2023-02-19T03:28:28.364Z,59.27
2023-02-19T03:30:54.774Z,59.16
2023-02-19T03:33:21.186Z,59.68
2023-02-19T03:35:47.593Z,59.06
2023-02-19T03:38:14.000Z,60.44
2023-02-19T03:40:40.399Z,61.20
2023-02-19T03:43:06.826Z,61.85
2023-02-19T03:45:33.267Z,62.57
2023-02-19T03:48:02.445Z,62.74
2023-02-19T03:50:28.856Z,62.73
2023-02-19T03:52:55.494Z,61.89
2023-02-19T03:55:22.926Z,62.34
2023-02-19T03:57:49.322Z,63.04
2023-02-19T04:00:16.982Z,63.14
2023-02-19T04:02:43.846Z,63.56
2023-02-19T04:05:10.971Z,64.04
2023-02-19T04:07:39.190Z,63.80
2023-02-19T04:10:05.580Z,63.90
2023-02-19T04:12:32.571Z,64.45
2023-02-19T04:14:59.003Z,64.70
2023-02-19T04:17:25.434Z,64.65
2023-02-19T04:19:51.853Z,64.52
2023-02-19T04:22:18.302Z,64.40
2023-02-19T04:24:44.665Z,64.35
2023-02-19T04:27:11.077Z,64.44
2023-02-19T04:29:39.529Z,64.12
2023-02-19T04:32:08.327Z,64.29
2023-02-19T04:34:34.767Z,63.96
2023-02-19T04:37:01.177Z,63.70
2023-02-19T04:39:27.580Z,63.32
2023-02-19T04:41:53.998Z,63.34
2023-02-19T04:44:20.377Z,63.13
2023-02-19T04:46:46.806Z,63.40
2023-02-19T04:49:13.201Z,63.09
2023-02-19T04:51:39.604Z,61.82
2023-02-19T04:54:06.021Z,61.72
2023-02-19T04:56:32.475Z,61.00
2023-02-19T04:58:58.897Z,61.23
2023-02-19T05:01:25.323Z,61.22
2023-02-19T05:03:51.858Z,60.59
2023-02-19T05:06:18.255Z,60.45
2023-02-19T05:08:44.643Z,60.62
2023-02-19T05:11:11.434Z,60.82
2023-02-19T05:13:38.040Z,61.27
2023-02-19T05:16:04.454Z,60.89
2023-02-19T05:18:30.902Z,61.19
2023-02-19T05:20:57.293Z,60.74
2023-02-19T05:23:23.695Z,60.87
2023-02-19T05:25:50.086Z,61.26
2023-02-19T05:28:16.496Z,60.87
2023-02-19T05:30:42.903Z,60.52
2023-02-19T05:33:09.390Z,61.11
2023-02-19T05:35:35.800Z,60.90
2023-02-19T05:38:02.251Z,60.86
2023-02-19T05:40:28.660Z,61.42
2023-02-19T05:42:55.074Z,60.70
2023-02-19T05:45:21.491Z,60.53
2023-02-19T05:47:47.876Z,61.09
2023-02-19T05:50:14.292Z,61.25
2023-02-19T05:52:40.669Z,61.97
2023-02-19T05:55:07.068Z,62.67
2023-02-19T05:57:33.479Z,62.32
2023-02-19T05:59:59.902Z,62.56
2023-02-19T06:02:26.375Z,61.76
2023-02-19T06:04:52.886Z,60.71
2023-02-19T06:07:19.284Z,60.97
2023-02-19T06:09:45.674Z,60.31
2023-02-19T06:12:12.109Z,59.60
2023-02-19T06:14:38.509Z,59.58
2023-02-19T06:17:05.029Z,60.20
2023-02-19T06:19:31.419Z,59.89
2023-02-19T06:21:57.828Z,59.92
2023-02-19T06:24:24.253Z,60.12
2023-02-19T06:26:50.638Z,60.44
2023-02-19T06:29:17.042Z,60.10
2023-02-19T06:31:43.520Z,59.78
2023-02-19T06:34:09.964Z,60.36
2023-02-19T06:36:36.355Z,60.54
2023-02-19T06:39:02.832Z,60.27
2023-02-19T06:41:29.230Z,60.56
2023-02-19T06:43:55.651Z,60.71
2023-02-19T06:46:22.089Z,61.23
2023-02-19T06:48:48.563Z,61.23
2023-02-19T06:51:14.999Z,61.55
2023-02-19T06:53:41.387Z,61.41
2023-02-19T06:56:07.991Z,62.10
2023-02-19T06:58:34.414Z,62.47
2023-02-19T07:01:00.881Z,62.37
2023-02-19T07:03:27.343Z,62.83
2023-02-19T07:05:53.762Z,63.10
2023-02-19T07:08:20.275Z,63.53
2023-02-19T07:10:46.688Z,63.33
2023-02-19T07:13:13.090Z,63.66
2023-02-19T07:15:39.599Z,63.88
2023-02-19T07:18:06.049Z,64.08
2023-02-19T07:20:32.438Z,63.73
2023-02-19T07:22:58.853Z,64.14
2023-02-19T07:25:25.250Z,64.12
2023-02-19T07:27:51.674Z,64.40
2023-02-19T07:30:18.170Z,65.07
2023-02-19T07:32:44.618Z,64.53
2023-02-19T07:35:11.035Z,65.01
2023-02-19T07:37:37.481Z,65.43
2023-02-19T07:40:03.923Z,64.92
2023-02-19T07:42:30.392Z,63.93
2023-02-19T07:44:58.443Z,64.50
2023-02-19T07:47:26.669Z,63.34
2023-02-19T07:49:53.164Z,64.51
2023-02-19T07:52:19.566Z,64.00
2023-02-19T07:54:45.964Z,64.12
2023-02-19T07:57:12.460Z,62.60
2023-02-19T07:59:38.839Z,62.15
2023-02-19T08:02:05.226Z,62.53
2023-02-19T08:04:31.638Z,62.60
2023-02-19T08:06:58.031Z,63.50
2023-02-19T08:09:24.518Z,63.92
2023-02-19T08:11:50.949Z,63.13
2023-02-19T08:14:17.332Z,62.39
2023-02-19T08:16:43.783Z,61.88
2023-02-19T08:19:10.217Z,61.26
2023-02-19T08:21:36.757Z,61.21
2023-02-19T08:24:03.159Z,61.92
2023-02-19T08:26:29.568Z,61.64
2023-02-19T08:28:56.024Z,59.58
2023-02-19T08:31:22.477Z,59.12
2023-02-19T08:33:49.362Z,59.77
2023-02-19T08:36:15.777Z,60.31
2023-02-19T08:38:42.204Z,59.79
2023-02-19T08:41:08.963Z,60.71
2023-02-19T08:43:35.637Z,60.26
2023-02-19T08:46:02.110Z,60.66
2023-02-19T08:48:28.560Z,60.06
2023-02-19T08:50:54.954Z,58.93
2023-02-19T08:53:21.340Z,59.56
2023-02-19T08:55:47.758Z,58.25
2023-02-19T08:58:14.192Z,59.72
2023-02-19T09:00:40.605Z,59.69
2023-02-19T09:03:07.025Z,59.15
2023-02-19T09:05:33.433Z,59.44
2023-02-19T09:07:59.838Z,58.71
2023-02-19T09:10:26.226Z,58.66
2023-02-19T09:12:52.624Z,58.55
2023-02-19T09:15:18.992Z,57.42
2023-02-19T09:17:45.408Z,57.47
2023-02-19T09:20:11.793Z,56.73
2023-02-19T09:22:38.182Z,56.58
2023-02-19T09:25:04.564Z,55.91
2023-02-19T09:27:30.975Z,56.54
2023-02-19T09:29:57.362Z,56.52
2023-02-19T09:32:23.773Z,56.10
2023-02-19T09:34:50.198Z,55.72
2023-02-19T09:37:16.594Z,56.29
2023-02-19T09:39:42.977Z,55.75
2023-02-19T09:42:09.390Z,55.48
2023-02-19T09:44:35.775Z,56.04
2023-02-19T09:47:02.162Z,55.98
2023-02-19T09:49:28.634Z,56.16
2023-02-19T09:51:55.066Z,56.30
2023-02-19T09:54:21.486Z,57.25
2023-02-19T09:56:47.893Z,55.62
2023-02-19T09:59:14.339Z,55.92
2023-02-19T10:01:40.788Z,55.75
2023-02-19T10:04:07.219Z,55.42
2023-02-19T10:06:33.660Z,55.40
2023-02-19T10:09:00.046Z,54.99
2023-02-19T10:11:26.430Z,54.31
2023-02-19T10:13:52.806Z,54.50
2023-02-19T10:16:19.226Z,54.77
2023-02-19T10:18:45.607Z,54.52
2023-02-19T10:21:12.229Z,55.60
2023-02-19T10:23:38.763Z,54.47
2023-02-19T10:26:05.176Z,55.35
2023-02-19T10:28:31.578Z,54.36
2023-02-19T10:30:58.059Z,55.05
2023-02-19T10:33:24.468Z,53.14
2023-02-19T10:35:50.859Z,54.14
2023-02-19T10:38:17.267Z,54.43
2023-02-19T10:40:43.655Z,54.76
2023-02-19T10:43:10.028Z,54.99
2023-02-19T10:45:36.507Z,56.28
2023-02-19T10:48:02.927Z,55.39
2023-02-19T10:50:29.325Z,54.87
2023-02-19T10:52:55.715Z,55.48
2023-02-19T10:55:22.087Z,55.03
2023-02-19T10:57:48.486Z,56.41
2023-02-19T11:00:14.907Z,56.24
2023-02-19T11:02:41.371Z,55.69
2023-02-19T11:05:07.743Z,55.78
2023-02-19T11:07:34.133Z,54.56
2023-02-19T11:10:00.527Z,56.01
2023-02-19T11:12:26.916Z,55.59
2023-02-19T11:14:53.316Z,55.46
2023-02-19T11:17:19.727Z,55.94
2023-02-19T11:19:46.214Z,54.45
2023-02-19T11:22:12.606Z,54.17
2023-02-19T11:24:39.010Z,54.16
2023-02-19T11:27:05.390Z,53.49
2023-02-19T11:29:31.785Z,54.87
2023-02-19T11:31:58.245Z,53.80
2023-02-19T11:34:24.700Z,54.08
2023-02-19T11:36:51.124Z,54.19
2023-02-19T11:39:17.515Z,54.12
2023-02-19T11:41:43.918Z,55.01
2023-02-19T11:44:10.300Z,54.65
2023-02-19T11:46:36.754Z,54.62
2023-02-19T11:49:03.178Z,54.50
2023-02-19T11:51:29.579Z,54.25
2023-02-19T11:53:55.959Z,53.73
2023-02-19T11:56:22.343Z,54.31
2023-02-19T11:58:48.757Z,55.02
2023-02-19T12:01:15.177Z,54.04
2023-02-19T12:03:41.571Z,55.46
2023-02-19T12:06:08.021Z,53.95
2023-02-19T12:08:34.427Z,54.44
2023-02-19T12:11:00.854Z,54.39
2023-02-19T12:13:27.233Z,54.43
2023-02-19T12:18:24.991Z,54.44
2023-02-19T12:20:51.402Z,55.67
2023-02-19T12:23:17.902Z,54.40
2023-02-19T12:25:44.283Z,54.86
2023-02-19T12:28:10.657Z,55.27
2023-02-19T12:30:37.121Z,54.41
2023-02-19T12:33:03.564Z,53.73
2023-02-19T12:35:29.942Z,54.16
2023-02-19T12:37:56.336Z,54.61
2023-02-19T12:40:22.707Z,53.63
2023-02-19T12:42:51.036Z,52.14
2023-02-19T12:45:17.544Z,53.31
2023-02-19T12:47:43.916Z,53.80
2023-02-19T12:50:10.294Z,54.33
2023-02-19T12:52:36.701Z,53.72
2023-02-19T12:55:03.127Z,53.28
2023-02-19T12:57:29.615Z,53.36
2023-02-19T12:59:56.053Z,53.28
2023-02-19T13:02:22.529Z,53.74
2023-02-19T13:04:48.937Z,53.11
2023-02-19T13:07:15.354Z,52.68
2023-02-19T13:09:41.752Z,52.43
2023-02-19T13:12:08.137Z,53.54
2023-02-19T13:14:34.527Z,52.29
2023-02-19T13:17:01.010Z,52.22
2023-02-19T13:19:27.450Z,52.80
2023-02-19T13:21:53.851Z,51.23
2023-02-19T13:24:20.231Z,51.40
2023-02-19T13:26:46.722Z,50.68
2023-02-19T13:29:13.111Z,51.21
2023-02-19T13:31:39.639Z,49.75
2023-02-19T13:34:06.180Z,50.42
2023-02-19T13:36:32.628Z,49.89
2023-02-19T13:38:59.013Z,49.97
2023-02-19T13:41:25.436Z,50.15
2023-02-19T13:43:51.827Z,50.32
2023-02-19T13:46:18.261Z,49.78
2023-02-19T13:48:44.664Z,49.20
2023-02-19T13:51:11.355Z,49.52
2023-02-19T13:53:37.943Z,48.67
2023-02-19T13:56:04.319Z,48.87
2023-02-19T13:58:31.998Z,48.88
2023-02-19T14:00:58.403Z,48.85
2023-02-19T14:03:24.807Z,49.92
2023-02-19T14:05:51.187Z,50.78
2023-02-19T14:08:17.565Z,51.37
2023-02-19T14:10:43.961Z,52.25
2023-02-19T14:13:10.416Z,53.05
2023-02-19T14:15:36.932Z,52.82
2023-02-19T14:18:03.412Z,53.18
2023-02-19T14:20:29.801Z,52.69
2023-02-19T14:22:56.178Z,53.97
2023-02-19T14:25:22.586Z,54.50
2023-02-19T14:27:48.970Z,53.99
2023-02-19T14:30:15.414Z,54.60
2023-02-19T14:32:43.566Z,53.61
2023-02-19T14:35:11.602Z,53.87
2023-02-19T14:37:37.981Z,53.86
2023-02-19T14:40:04.544Z,54.10
2023-02-19T14:42:30.969Z,53.27
2023-02-19T14:44:57.370Z,53.89
2023-02-19T14:47:23.781Z,54.38
2023-02-19T14:49:50.177Z,53.97
2023-02-19T14:52:16.590Z,54.14
2023-02-19T14:54:43.002Z,53.96
2023-02-19T14:57:09.505Z,54.35
2023-02-19T14:59:35.902Z,53.30
2023-02-19T15:02:02.294Z,54.25
2023-02-19T15:04:28.709Z,54.17
2023-02-19T15:06:55.165Z,54.94
2023-02-19T15:09:21.538Z,55.28
2023-02-19T15:11:47.933Z,54.96
2023-02-19T15:14:14.362Z,55.76
2023-02-19T15:16:40.765Z,54.70
2023-02-19T15:19:07.173Z,56.30
2023-02-19T15:21:33.590Z,55.62
2023-02-19T15:24:00.027Z,56.04
2023-02-19T15:26:26.406Z,56.37
2023-02-19T15:28:52.797Z,56.80
2023-02-19T15:31:19.323Z,56.38
2023-02-19T15:33:45.776Z,56.23
2023-02-19T15:36:12.254Z,56.21
2023-02-19T15:38:38.648Z,57.18
2023-02-19T15:41:05.229Z,56.24
2023-02-19T15:43:31.656Z,56.79
2023-02-19T15:45:58.057Z,57.17
2023-02-19T15:48:24.427Z,57.88
2023-02-19T15:50:50.811Z,58.23
2023-02-19T15:53:17.248Z,58.05
2023-02-19T15:55:43.668Z,59.10
2023-02-19T15:58:10.122Z,58.48
2023-02-19T16:00:36.513Z,59.79
2023-02-19T16:03:02.928Z,59.89
2023-02-19T16:05:29.379Z,59.57
2023-02-19T16:07:55.766Z,60.38
2023-02-19T16:10:22.386Z,60.83
2023-02-19T16:12:48.797Z,60.82
2023-02-19T16:15:15.199Z,60.76
2023-02-19T16:17:41.586Z,60.15
2023-02-19T16:20:08.010Z,60.18
2023-02-19T16:22:34.414Z,60.74
2023-02-19T16:25:00.845Z,60.68
2023-02-19T16:27:27.226Z,61.34
2023-02-19T16:29:53.610Z,61.12
2023-02-19T16:32:20.069Z,61.48
2023-02-19T16:34:46.557Z,62.02
2023-02-19T16:37:12.938Z,61.77
2023-02-19T16:39:39.314Z,61.56
2023-02-19T16:42:05.841Z,62.14
2023-02-19T16:44:32.235Z,61.95
2023-02-19T16:46:58.645Z,62.07
2023-02-19T16:49:25.062Z,62.24
2023-02-19T16:51:51.455Z,62.61
2023-02-19T16:54:17.856Z,62.02
2023-02-19T16:56:44.276Z,62.03
2023-02-19T16:59:10.689Z,62.45
2023-02-19T17:01:37.138Z,62.63
2023-02-19T17:04:03.589Z,63.19
2023-02-19T17:06:30.045Z,62.72
2023-02-19T17:08:56.504Z,62.44
2023-02-19T17:13:49.340Z,63.05
2023-02-19T17:16:15.777Z,63.14
2023-02-19T17:18:42.192Z,63.33
2023-02-19T17:21:08.662Z,63.60
2023-02-19T17:23:35.056Z,63.17
2023-02-19T17:26:01.500Z,63.06
2023-02-19T17:28:27.898Z,63.17
2023-02-19T17:30:54.305Z,63.50
2023-02-19T17:33:20.681Z,63.46
2023-02-19T17:35:47.123Z,63.66
2023-02-19T17:38:13.527Z,63.37
2023-02-19T17:40:39.903Z,63.11
2023-02-19T17:43:06.630Z,62.54
2023-02-19T17:45:33.062Z,63.38
2023-02-19T17:47:59.482Z,62.79
2023-02-19T17:50:25.894Z,62.45
2023-02-19T17:52:52.299Z,62.46
2023-02-19T17:55:18.726Z,63.19
2023-02-19T17:57:45.093Z,63.03
2023-02-19T18:00:11.520Z,62.51
2023-02-19T18:02:37.926Z,62.05
2023-02-19T18:05:04.342Z,62.12
2023-02-19T18:07:30.794Z,61.57
2023-02-19T18:09:57.187Z,62.44
2023-02-19T18:12:23.606Z,62.07
2023-02-19T18:14:49.979Z,62.08
2023-02-19T18:17:16.397Z,62.87
2023-02-19T18:19:42.776Z,62.81
2023-02-19T18:22:09.164Z,62.55
2023-02-19T18:24:35.589Z,62.16
2023-02-19T18:27:02.014Z,62.53
2023-02-19T18:29:28.437Z,62.29
2023-02-19T18:31:54.949Z,62.73
2023-02-19T18:34:21.419Z,62.45
2023-02-19T18:36:47.823Z,63.10
2023-02-19T18:39:14.301Z,62.92
2023-02-19T18:41:40.708Z,62.33
2023-02-19T18:44:07.106Z,61.72
2023-02-19T18:46:33.513Z,62.29
2023-02-19T18:48:59.929Z,62.79
2023-02-19T18:51:26.370Z,62.72
2023-02-19T18:53:52.785Z,62.21
2023-02-19T18:56:19.191Z,62.84
2023-02-19T18:58:45.626Z,62.55
2023-02-19T19:01:12.215Z,62.05
2023-02-19T19:03:38.817Z,61.56
2023-02-19T19:06:05.210Z,61.14
2023-02-19T19:08:31.630Z,61.99
2023-02-19T19:10:58.039Z,60.86
2023-02-19T19:13:24.566Z,60.15
2023-02-19T19:15:51.010Z,60.48
2023-02-19T19:18:17.406Z,60.78
2023-02-19T19:20:43.810Z,61.09
2023-02-19T19:23:10.310Z,60.65
2023-02-19T19:25:36.739Z,60.44
2023-02-19T19:28:03.113Z,60.58
2023-02-19T19:30:29.597Z,59.58
2023-02-19T19:32:55.973Z,60.76
2023-02-19T19:35:22.374Z,61.29
2023-02-19T19:37:48.785Z,61.00
2023-02-19T19:40:15.163Z,60.83
2023-02-19T19:42:43.572Z,60.82
2023-02-19T19:45:10.814Z,60.27
2023-02-19T19:47:37.287Z,59.97
2023-02-19T19:50:03.805Z,60.41
2023-02-19T19:52:30.208Z,60.76
2023-02-19T19:54:56.603Z,61.54
2023-02-19T19:57:23.023Z,61.68
2023-02-19T19:59:49.424Z,60.78
2023-02-19T20:02:15.820Z,60.67
2023-02-19T20:04:42.210Z,61.26
2023-02-19T20:07:08.609Z,60.40
2023-02-19T20:09:35.024Z,60.58
2023-02-19T20:12:01.416Z,61.04
2023-02-19T20:14:27.898Z,60.81
2023-02-19T20:16:54.305Z,60.98
2023-02-19T20:19:20.708Z,61.02
2023-02-19T20:21:47.098Z,61.06
2023-02-19T20:24:13.532Z,61.37
2023-02-19T20:26:39.958Z,61.42
2023-02-19T20:29:06.394Z,61.81
2023-02-19T20:31:32.902Z,61.39
2023-02-19T20:33:59.382Z,60.71
2023-02-19T20:36:25.795Z,60.96
2023-02-19T20:38:52.207Z,61.21
2023-02-19T20:41:18.613Z,61.18
2023-02-19T20:43:45.011Z,61.70
2023-02-19T20:46:11.821Z,61.94
2023-02-19T20:48:38.435Z,61.56
2023-02-19T20:51:04.924Z,60.46
2023-02-19T20:53:31.307Z,59.69
2023-02-19T20:55:57.729Z,60.41
2023-02-19T20:58:24.135Z,59.94
2023-02-19T21:00:50.629Z,60.01
2023-02-19T21:03:17.025Z,60.07
2023-02-19T21:05:43.427Z,61.00
2023-02-19T21:08:09.802Z,61.32
2023-02-19T21:10:36.217Z,61.49
2023-02-19T21:13:02.619Z,61.28
2023-02-19T21:15:29.020Z,60.88
2023-02-19T21:17:55.417Z,60.84
2023-02-19T21:20:22.151Z,60.62
2023-02-19T21:22:48.553Z,61.15
2023-02-19T21:25:14.962Z,60.88
2023-02-19T21:27:41.378Z,61.11
2023-02-19T21:30:07.800Z,61.02
2023-02-19T21:32:34.238Z,61.49
2023-02-19T21:35:00.653Z,61.44
2023-02-19T21:37:27.051Z,61.25
2023-02-19T21:39:53.455Z,61.70
2023-02-19T21:42:19.851Z,61.15
2023-02-19T21:44:46.251Z,61.62
2023-02-19T21:47:12.668Z,61.53
2023-02-19T21:49:39.118Z,61.69
2023-02-19T21:52:05.516Z,61.79
2023-02-19T21:54:31.926Z,61.47
2023-02-19T21:56:58.310Z,61.34
2023-02-19T21:59:24.729Z,61.39
2023-02-19T22:01:51.136Z,61.25
2023-02-19T22:04:17.532Z,61.44
2023-02-19T22:06:43.938Z,61.75
2023-02-19T22:09:10.374Z,61.84
2023-02-19T22:11:36.804Z,61.52
2023-02-19T22:14:03.205Z,61.39
2023-02-19T22:16:29.656Z,61.51
2023-02-19T22:18:56.100Z,61.73
2023-02-19T22:21:22.536Z,62.03
2023-02-19T22:23:48.958Z,62.01
2023-02-19T22:26:15.396Z,62.27
2023-02-19T22:28:41.847Z,62.10
2023-02-19T22:31:08.269Z,62.11
2023-02-19T22:33:34.639Z,62.39
2023-02-19T22:36:01.053Z,62.33
2023-02-19T22:38:27.449Z,62.79
2023-02-19T22:40:53.849Z,63.28
2023-02-19T22:43:20.244Z,63.33
2023-02-19T22:45:46.677Z,63.17
2023-02-19T22:48:16.887Z,62.50
2023-02-19T22:50:45.643Z,62.22
2023-02-19T22:53:12.061Z,62.37
2023-02-19T22:55:38.495Z,62.78
2023-02-19T22:58:04.955Z,62.57
2023-02-19T23:00:31.359Z,62.05
2023-02-19T23:02:57.878Z,62.17
2023-02-19T23:05:24.272Z,62.12
2023-02-19T23:07:50.663Z,62.52
2023-02-19T23:10:17.063Z,61.92
2023-02-19T23:12:43.490Z,62.38
2023-02-19T23:15:09.874Z,62.47
2023-02-19T23:17:36.301Z,61.81
2023-02-19T23:20:02.737Z,62.21
2023-02-19T23:22:29.146Z,62.91
2023-02-19T23:24:55.718Z,62.65
2023-02-19T23:27:22.138Z,62.85
2023-02-19T23:29:48.567Z,62.25
2023-02-19T23:32:14.960Z,62.05
2023-02-19T23:34:41.394Z,62.40
2023-02-19T23:37:07.815Z,63.22
2023-02-19T23:39:34.219Z,62.78
2023-02-19T23:42:00.609Z,63.20
2023-02-19T23:44:27.025Z,62.62
2023-02-19T23:46:53.408Z,63.13
2023-02-19T23:49:19.815Z,62.59
2023-02-19T23:51:46.216Z,62.94
2023-02-19T23:54:12.636Z,62.36
2023-02-19T23:56:39.039Z,62.25
2023-02-19T23:59:05.440Z,62.48
